Time;durP1;ratioP1;P1;durP2;ratioP2;P2;SDS_P1;SDS_P2;PMS_P1;PMS_P2;Temp;Humidity;BMP_temperature;BMP_pressure;BME280_temperature;BME280_humidity;BME280_pressure;Samples;Min_cycle;Max_cycle;Signal;HPM_P1;HPM_P2
2022/09/24 00:00:44;;;;;;;14.00;8.60;;;13.00;90.00;;;;;;5008998;28;20424;-69
2022/09/24 00:03:10;;;;;;;17.17;9.33;;;13.00;89.70;;;;;;4991564;28;20425;-71
2022/09/24 00:05:40;;;;;;;14.10;9.30;;;13.10;89.50;;;;;;4982839;28;20428;-70
2022/09/24 00:08:06;;;;;;;13.53;8.67;;;13.20;88.90;;;;;;4988428;28;20837;-70
2022/09/24 00:10:40;;;;;;;12.30;8.87;;;13.20;88.40;;;;;;5002319;28;20943;-70
2022/09/24 00:13:08;;;;;;;14.73;9.50;;;13.20;88.40;;;;;;4977778;28;20547;-70
2022/09/24 00:15:43;;;;;;;12.57;9.43;;;13.20;88.40;;;;;;5004963;28;20455;-70
2022/09/24 00:18:10;;;;;;;17.10;10.97;;;13.30;88.40;;;;;;4994359;28;20541;-68
2022/09/24 00:20:37;;;;;;;13.60;9.17;;;13.30;88.00;;;;;;5003995;28;20865;-70
2022/09/24 00:23:02;;;;;;;14.20;9.23;;;13.20;88.00;;;;;;4999488;28;20908;-70
2022/09/24 00:28:30;;;;;;;17.60;9.60;;;13.20;88.10;;;;;;4919530;29;20448;-70
2022/09/24 00:30:59;;;;;;;14.87;9.90;;;13.20;87.80;;;;;;4984583;28;20962;-70
2022/09/24 00:33:27;;;;;;;14.60;9.00;;;13.10;88.00;;;;;;4996738;28;20833;-70
2022/09/24 00:36:04;;;;;;;16.43;9.17;;;13.10;88.40;;;;;;5000490;28;20519;-71
2022/09/24 00:38:31;;;;;;;14.50;8.97;;;13.10;88.40;;;;;;4982883;28;20424;-70
2022/09/24 00:40:57;;;;;;;14.23;9.60;;;13.10;88.70;;;;;;4987456;28;20424;-70
2022/09/24 00:43:35;;;;;;;13.17;9.27;;;13.10;88.40;;;;;;5005521;28;20796;-70
2022/09/24 00:46:13;;;;;;;12.13;8.63;;;13.10;88.40;;;;;;4989140;28;20209;-70
2022/09/24 00:48:40;;;;;;;14.77;9.17;;;13.10;88.40;;;;;;4989405;28;20418;-69
2022/09/24 00:51:07;;;;;;;15.93;10.53;;;13.10;88.10;;;;;;5000460;28;20435;-68
2022/09/24 00:53:33;;;;;;;15.33;9.87;;;13.10;87.80;;;;;;4976491;28;20526;-69
2022/09/24 00:56:02;;;;;;;16.23;9.60;;;13.10;88.00;;;;;;5003063;28;20452;-70
2022/09/24 00:58:28;;;;;;;14.33;10.00;;;13.00;88.00;;;;;;5005299;28;20452;-69
2022/09/24 01:01:02;;;;;;;16.50;10.00;;;13.00;88.00;;;;;;5008456;28;20420;-70
2022/09/24 01:03:30;;;;;;;15.63;9.00;;;13.00;88.00;;;;;;5003421;28;20448;-70
2022/09/24 01:05:56;;;;;;;13.43;8.60;;;12.90;88.40;;;;;;5002484;28;20842;-70
2022/09/24 01:08:21;;;;;;;13.67;8.47;;;13.00;88.60;;;;;;5002279;28;20428;-71
2022/09/24 01:11:12;;;;;;;13.30;8.53;;;13.00;88.60;;;;;;5007873;28;20480;-69
2022/09/24 01:14:02;;;;;;;14.33;9.57;;;13.10;88.40;;;;;;5002890;28;20199;-69
2022/09/24 01:16:43;;;;;;;12.90;9.80;;;13.00;88.40;;;;;;5005980;28;20451;-70
2022/09/24 01:19:30;;;;;;;14.77;8.33;;;12.90;88.30;;;;;;5011222;28;20409;-69
2022/09/24 01:21:59;;;;;;;16.10;8.20;;;12.90;88.60;;;;;;5003868;28;20441;-69
2022/09/24 01:24:56;;;;;;;14.03;9.40;;;13.00;88.70;;;;;;5010658;28;20424;-70
2022/09/24 01:27:28;;;;;;;13.20;8.97;;;12.90;88.70;;;;;;4990397;28;20472;-70
2022/09/24 01:30:19;;;;;;;14.67;10.20;;;12.90;88.60;;;;;;5003417;28;20428;-70
2022/09/24 01:32:56;;;;;;;16.57;10.27;;;12.80;88.90;;;;;;4998581;28;20478;-70
2022/09/24 01:35:24;;;;;;;15.40;10.67;;;12.80;88.90;;;;;;4992244;28;20486;-71
2022/09/24 01:38:15;;;;;;;17.53;11.23;;;12.80;88.70;;;;;;5002442;28;20476;-70
2022/09/24 01:40:44;;;;;;;14.20;9.67;;;12.70;88.90;;;;;;4999871;28;20454;-70
2022/09/24 01:43:11;;;;;;;13.93;10.43;;;12.70;89.20;;;;;;5009104;28;21215;-71
2022/09/24 01:45:39;;;;;;;22.17;11.40;;;12.70;89.30;;;;;;4998336;28;20816;-70
2022/09/24 01:48:05;;;;;;;18.60;11.17;;;12.60;89.50;;;;;;5000918;28;20452;-69
2022/09/24 01:50:43;;;;;;;19.90;11.03;;;12.50;89.70;;;;;;5002637;28;20445;-69
2022/09/24 01:53:33;;;;;;;17.57;10.50;;;12.50;89.90;;;;;;5000817;28;20471;-70
2022/09/24 01:56:12;;;;;;;15.67;10.30;;;12.50;90.10;;;;;;5000366;28;20458;-69
2022/09/24 01:59:01;;;;;;;16.80;11.70;;;12.50;90.00;;;;;;5005112;28;20404;-69
2022/09/24 02:01:46;;;;;;;16.70;11.00;;;12.40;90.10;;;;;;5000261;28;20414;-70
2022/09/24 02:04:15;;;;;;;15.33;10.00;;;12.40;90.40;;;;;;5005386;28;20417;-69
2022/09/24 02:07:14;;;;;;;14.80;9.60;;;12.40;90.40;;;;;;5004217;28;20492;-69
2022/09/24 02:09:42;;;;;;;13.00;8.53;;;12.50;90.50;;;;;;5001232;28;20419;-70
2022/09/24 02:12:16;;;;;;;12.53;8.80;;;12.50;90.40;;;;;;5000100;28;20847;-70
2022/09/24 02:14:50;;;;;;;13.20;9.30;;;12.50;90.50;;;;;;5000637;28;20436;-70
2022/09/24 02:17:17;;;;;;;12.90;8.60;;;12.50;90.40;;;;;;5005455;28;20490;-71
2022/09/24 02:19:45;;;;;;;14.17;8.50;;;12.50;90.50;;;;;;5005808;28;20409;-70
2022/09/24 02:22:13;;;;;;;12.57;8.57;;;12.50;90.40;;;;;;5002424;28;20430;-70
2022/09/24 02:24:48;;;;;;;14.07;9.37;;;12.50;90.60;;;;;;5005816;28;20420;-71
2022/09/24 02:27:15;;;;;;;15.17;10.20;;;12.50;90.50;;;;;;4985822;28;21019;-70
2022/09/24 02:29:41;;;;;;;13.83;9.40;;;12.50;90.50;;;;;;5001597;28;20475;-71
2022/09/24 02:32:09;;;;;;;12.00;8.73;;;12.50;90.40;;;;;;5009006;28;20417;-70
2022/09/24 02:34:43;;;;;;;16.47;9.83;;;12.50;90.30;;;;;;5006321;28;20564;-71
2022/09/24 02:37:11;;;;;;;18.00;10.93;;;12.40;90.30;;;;;;5005432;28;20544;-71
2022/09/24 02:39:37;;;;;;;15.50;10.33;;;12.30;90.50;;;;;;5004099;28;20425;-70
2022/09/24 02:42:05;;;;;;;13.60;9.67;;;12.30;90.70;;;;;;5002008;28;20516;-70
2022/09/24 02:44:32;;;;;;;13.27;10.00;;;12.30;91.00;;;;;;5008371;28;20506;-71
2022/09/24 02:46:58;;;;;;;16.30;10.90;;;12.40;90.80;;;;;;5004714;28;20464;-71
2022/09/24 02:49:24;;;;;;;16.17;10.30;;;12.40;90.60;;;;;;4989209;28;20421;-71
2022/09/24 02:51:49;;;;;;;14.70;10.43;;;12.30;90.80;;;;;;4997845;28;20970;-71
2022/09/24 02:54:15;;;;;;;13.83;9.73;;;12.30;91.00;;;;;;5007290;28;20205;-69
2022/09/24 02:56:41;;;;;;;14.67;11.13;;;12.40;91.00;;;;;;5008728;28;20208;-70
2022/09/24 02:59:06;;;;;;;15.03;11.57;;;12.40;90.70;;;;;;5002216;28;20179;-70
2022/09/24 03:01:33;;;;;;;15.40;10.00;;;12.30;90.80;;;;;;5010297;28;20193;-70
2022/09/24 03:03:59;;;;;;;19.17;11.70;;;12.30;90.80;;;;;;5002050;28;20193;-70
2022/09/24 03:06:25;;;;;;;24.03;11.17;;;12.30;90.70;;;;;;5007364;28;20463;-71
2022/09/24 03:08:52;;;;;;;16.53;10.43;;;12.30;90.80;;;;;;5005434;28;20420;-70
2022/09/24 03:11:19;;;;;;;13.73;9.80;;;12.30;91.20;;;;;;5003860;28;20178;-70
2022/09/24 03:13:44;;;;;;;14.03;10.07;;;12.40;91.00;;;;;;5003682;28;20585;-71
2022/09/24 03:16:10;;;;;;;18.80;11.20;;;12.50;90.70;;;;;;5003683;28;20908;-70
2022/09/24 03:18:36;;;;;;;15.40;10.00;;;12.50;90.50;;;;;;5000885;28;20175;-70
2022/09/24 03:21:05;;;;;;;16.50;10.37;;;12.60;90.60;;;;;;5000633;28;20206;-70
2022/09/24 03:23:31;;;;;;;15.27;10.43;;;12.60;90.40;;;;;;4990311;28;20186;-70
2022/09/24 03:25:56;;;;;;;15.13;9.33;;;12.60;90.00;;;;;;5004945;28;20457;-70
2022/09/24 03:28:22;;;;;;;14.60;10.00;;;12.60;90.10;;;;;;5005819;28;20675;-70
2022/09/24 03:31:00;;;;;;;17.67;10.97;;;12.60;90.20;;;;;;5003904;28;20192;-70
2022/09/24 03:33:35;;;;;;;14.83;9.87;;;12.50;90.10;;;;;;4986139;28;20466;-70
2022/09/24 03:36:24;;;;;;;17.00;11.10;;;12.60;90.40;;;;;;5000652;28;20463;-71
2022/09/24 03:38:55;;;;;;;14.97;11.00;;;12.60;90.10;;;;;;5005079;28;20413;-70
2022/09/24 03:41:26;;;;;;;19.43;12.20;;;12.50;90.10;;;;;;5004611;28;20417;-69
2022/09/24 03:43:51;;;;;;;15.50;10.17;;;12.50;90.00;;;;;;5006544;28;20854;-71
2022/09/24 03:46:18;;;;;;;17.27;11.57;;;12.50;90.10;;;;;;5004413;28;20480;-70
2022/09/24 03:48:45;;;;;;;15.40;10.63;;;12.50;90.00;;;;;;5002673;28;20178;-70
2022/09/24 03:51:15;;;;;;;16.20;10.70;;;12.60;89.70;;;;;;5004703;28;20450;-70
2022/09/24 03:53:41;;;;;;;16.67;11.20;;;12.60;89.60;;;;;;5008310;28;20548;-69
2022/09/24 03:56:08;;;;;;;17.33;11.37;;;12.70;88.90;;;;;;4999404;28;20544;-69
2022/09/24 03:58:37;;;;;;;18.50;10.83;;;12.60;89.20;;;;;;5006907;28;20188;-69
2022/09/24 04:01:04;;;;;;;17.37;11.07;;;12.60;89.60;;;;;;5008907;28;20412;-69
2022/09/24 04:03:30;;;;;;;18.63;10.90;;;12.70;89.00;;;;;;5004550;28;20470;-70
2022/09/24 04:05:56;;;;;;;15.87;11.17;;;12.60;89.20;;;;;;5001883;28;20472;-70
2022/09/24 04:08:22;;;;;;;18.40;11.47;;;12.70;89.00;;;;;;5003528;28;20460;-70
2022/09/24 04:10:49;;;;;;;14.70;9.70;;;12.60;89.00;;;;;;4988963;28;20182;-70
2022/09/24 04:13:15;;;;;;;18.07;11.60;;;12.70;89.20;;;;;;5006691;28;20475;-70
2022/09/24 04:15:41;;;;;;;22.90;11.17;;;12.70;89.00;;;;;;5005913;28;20444;-70
2022/09/24 04:18:07;;;;;;;16.83;11.10;;;12.70;89.20;;;;;;5005914;28;20413;-69
2022/09/24 04:20:33;;;;;;;19.70;10.83;;;12.80;88.90;;;;;;4983194;28;20681;-71
2022/09/24 04:22:59;;;;;;;17.60;10.73;;;12.80;88.40;;;;;;5000174;28;20472;-69
2022/09/24 04:25:29;;;;;;;19.30;11.17;;;12.80;88.40;;;;;;5003895;28;20433;-70
2022/09/24 04:27:57;;;;;;;17.33;11.27;;;12.80;88.30;;;;;;5006260;28;20444;-70
2022/09/24 04:30:24;;;;;;;15.93;11.00;;;12.70;88.40;;;;;;5004676;28;20453;-68
2022/09/24 04:32:50;;;;;;;18.60;9.40;;;12.80;88.90;;;;;;5007346;28;20460;-70
2022/09/24 04:35:18;;;;;;;13.80;10.10;;;12.90;88.40;;;;;;5002280;28;20498;-70
2022/09/24 04:37:43;;;;;;;13.60;10.30;;;12.90;87.80;;;;;;5002268;28;20855;-70
2022/09/24 04:40:11;;;;;;;15.70;10.10;;;12.80;88.30;;;;;;5006516;28;20427;-69
2022/09/24 04:42:40;;;;;;;17.67;10.40;;;12.80;88.40;;;;;;5009365;28;20651;-70
2022/09/24 04:45:07;;;;;;;14.77;9.90;;;12.90;88.60;;;;;;5012454;28;20429;-69
2022/09/24 04:47:34;;;;;;;12.63;9.20;;;12.90;88.60;;;;;;5009485;28;20459;-69
2022/09/24 04:50:01;;;;;;;12.70;9.37;;;12.80;88.60;;;;;;5006258;28;20425;-69
2022/09/24 04:52:31;;;;;;;13.23;9.70;;;12.90;88.90;;;;;;5010208;28;20791;-69
2022/09/24 04:54:57;;;;;;;13.30;9.70;;;12.90;88.70;;;;;;5005979;28;20899;-70
2022/09/24 04:57:23;;;;;;;15.70;9.57;;;12.90;88.70;;;;;;5008244;28;20542;-70
2022/09/24 04:59:49;;;;;;;14.83;10.17;;;12.90;89.00;;;;;;5009488;28;20463;-69
2022/09/24 05:02:15;;;;;;;14.20;9.73;;;13.00;88.90;;;;;;5010265;28;20668;-69
2022/09/24 05:04:42;;;;;;;14.17;9.47;;;13.00;88.90;;;;;;5009190;28;20197;-70
2022/09/24 05:07:08;;;;;;;15.17;9.30;;;13.00;88.90;;;;;;4990078;28;20594;-69
2022/09/24 05:09:34;;;;;;;21.00;9.90;;;12.90;89.00;;;;;;5006400;28;20521;-69
2022/09/24 05:12:00;;;;;;;18.53;10.60;;;13.00;89.20;;;;;;5006806;28;20788;-70
2022/09/24 05:14:25;;;;;;;16.07;10.33;;;13.00;89.00;;;;;;5010458;28;20205;-69
2022/09/24 05:16:51;;;;;;;17.33;10.40;;;13.00;89.00;;;;;;5006528;28;20456;-70
2022/09/24 05:19:17;;;;;;;13.80;10.00;;;13.00;89.00;;;;;;5009761;28;20182;-69
2022/09/24 05:21:43;;;;;;;13.93;9.97;;;13.00;89.20;;;;;;5007041;28;20922;-69
2022/09/24 05:24:08;;;;;;;12.87;9.80;;;13.00;89.30;;;;;;5011021;28;20946;-69
2022/09/24 05:29:18;;;;;;;16.10;9.60;;;13.00;89.20;;;;;;5004831;28;20261;-69
2022/09/24 05:31:44;;;;;;;16.83;9.97;;;13.00;89.20;;;;;;5005669;28;20425;-69
2022/09/24 05:34:10;;;;;;;16.43;10.77;;;13.00;88.30;;;;;;5009218;28;20252;-69
2022/09/24 05:36:36;;;;;;;17.53;12.00;;;13.00;88.30;;;;;;5006233;28;20777;-70
2022/09/24 05:39:02;;;;;;;17.13;11.77;;;12.90;88.30;;;;;;5008562;28;20175;-70
2022/09/24 05:41:28;;;;;;;16.03;10.80;;;12.90;88.70;;;;;;5007816;28;20418;-70
2022/09/24 05:43:56;;;;;;;17.27;9.60;;;12.90;88.90;;;;;;4993228;28;21315;-71
2022/09/24 05:46:22;;;;;;;14.37;10.13;;;13.00;89.00;;;;;;5009326;28;20210;-71
2022/09/24 05:48:48;;;;;;;13.30;9.37;;;13.00;89.00;;;;;;5010371;28;20439;-71
2022/09/24 05:51:14;;;;;;;14.50;9.50;;;13.10;89.20;;;;;;5000136;28;20653;-70
2022/09/24 05:53:39;;;;;;;14.60;10.47;;;13.20;89.00;;;;;;5010580;28;20474;-71
2022/09/24 05:56:05;;;;;;;15.80;10.70;;;13.10;88.40;;;;;;5006015;28;20529;-72
2022/09/24 05:58:31;;;;;;;14.77;10.50;;;13.10;88.90;;;;;;4989955;28;20182;-70
2022/09/24 06:00:59;;;;;;;14.77;10.00;;;13.10;88.70;;;;;;5006172;28;20208;-71
2022/09/24 06:03:25;;;;;;;14.70;10.40;;;13.20;88.70;;;;;;5008300;28;20178;-71
2022/09/24 06:05:51;;;;;;;18.03;11.47;;;13.20;88.40;;;;;;5007451;28;20564;-70
2022/09/24 06:08:19;;;;;;;15.50;10.90;;;13.20;88.40;;;;;;4991623;28;20848;-71
2022/09/24 06:10:46;;;;;;;17.33;10.93;;;13.20;88.70;;;;;;5002564;28;20429;-70
2022/09/24 06:13:13;;;;;;;17.00;10.63;;;13.30;88.60;;;;;;5009092;28;20539;-71
2022/09/24 06:15:41;;;;;;;24.03;12.27;;;13.40;88.40;;;;;;5004541;28;20511;-70
2022/09/24 06:18:11;;;;;;;15.13;11.30;;;13.50;87.70;;;;;;5003221;28;20425;-70
2022/09/24 06:20:36;;;;;;;14.60;10.57;;;13.40;88.00;;;;;;5005094;28;20979;-69
2022/09/24 06:23:03;;;;;;;17.77;11.57;;;13.30;88.10;;;;;;5009844;28;20456;-71
2022/09/24 06:25:29;;;;;;;16.80;11.10;;;13.40;87.60;;;;;;5005863;28;20182;-71
2022/09/24 06:28:00;;;;;;;17.30;11.97;;;13.40;87.10;;;;;;5004498;28;20452;-71
2022/09/24 06:30:40;;;;;;;18.97;11.50;;;13.40;87.30;;;;;;5001284;28;20425;-70
2022/09/24 06:33:08;;;;;;;25.63;11.90;;;13.40;87.30;;;;;;5005850;28;20476;-69
2022/09/24 06:35:36;;;;;;;17.93;11.10;;;13.40;87.40;;;;;;5008696;28;20908;-71
2022/09/24 06:38:03;;;;;;;17.13;11.80;;;13.40;87.70;;;;;;5001231;28;20453;-71
2022/09/24 06:40:28;;;;;;;16.67;10.30;;;13.40;87.80;;;;;;5010472;28;20812;-71
2022/09/24 06:42:54;;;;;;;16.90;10.97;;;13.40;88.00;;;;;;4983657;28;20433;-70
2022/09/24 06:45:20;;;;;;;14.10;10.23;;;13.50;87.80;;;;;;5009999;28;20220;-70
2022/09/24 06:47:57;;;;;;;19.33;10.53;;;13.60;87.30;;;;;;5007649;28;20217;-71
2022/09/24 06:50:23;;;;;;;16.47;11.57;;;13.70;86.80;;;;;;5007216;28;20424;-71
2022/09/24 06:52:49;;;;;;;14.30;10.60;;;13.50;87.00;;;;;;5008159;28;20522;-70
2022/09/24 06:55:16;;;;;;;15.40;10.77;;;13.60;87.60;;;;;;5005560;28;20424;-70
2022/09/24 06:57:42;;;;;;;19.10;11.90;;;13.60;87.70;;;;;;5005476;28;20210;-71
2022/09/24 07:00:08;;;;;;;19.87;12.70;;;13.70;87.40;;;;;;5009585;28;20432;-70
2022/09/24 07:02:34;;;;;;;16.10;11.50;;;13.60;87.60;;;;;;5003367;28;20422;-70
2022/09/24 07:04:59;;;;;;;17.77;11.80;;;13.70;87.70;;;;;;5000213;28;20513;-70
2022/09/24 07:07:28;;;;;;;17.77;11.50;;;13.80;87.70;;;;;;5000589;28;20307;-72
2022/09/24 07:09:54;;;;;;;17.37;11.00;;;14.00;87.40;;;;;;5002881;28;20649;-70
2022/09/24 07:12:19;;;;;;;21.00;11.80;;;14.10;87.00;;;;;;5005461;28;20428;-70
2022/09/24 07:14:45;;;;;;;17.23;11.97;;;14.40;85.60;;;;;;5009132;28;20473;-70
2022/09/24 07:17:10;;;;;;;17.67;10.80;;;14.50;85.20;;;;;;5005589;28;20218;-70
2022/09/24 07:19:37;;;;;;;21.57;11.30;;;14.60;84.70;;;;;;5009303;28;20193;-69
2022/09/24 07:22:03;;;;;;;18.10;11.13;;;14.70;84.10;;;;;;5000160;28;20264;-69
2022/09/24 07:24:29;;;;;;;20.43;13.43;;;14.60;83.80;;;;;;5006528;28;20425;-70
2022/09/24 07:26:55;;;;;;;20.20;12.67;;;14.70;83.60;;;;;;5007760;28;20471;-70
2022/09/24 07:29:20;;;;;;;20.67;12.30;;;14.60;84.10;;;;;;5008910;28;20666;-70
2022/09/24 07:31:46;;;;;;;21.50;11.53;;;14.40;84.40;;;;;;5009835;28;20429;-71
2022/09/24 07:34:13;;;;;;;19.00;11.77;;;14.40;84.90;;;;;;5005926;28;20213;-70
2022/09/24 07:36:39;;;;;;;22.53;11.13;;;14.50;85.20;;;;;;5003290;28;20660;-71
2022/09/24 07:39:05;;;;;;;17.73;11.63;;;14.70;84.70;;;;;;4997791;28;20459;-69
2022/09/24 07:41:31;;;;;;;17.53;9.93;;;14.90;83.80;;;;;;5006472;28;20429;-69
2022/09/24 07:43:57;;;;;;;17.73;11.30;;;15.00;83.60;;;;;;5009266;28;20429;-71
2022/09/24 07:46:23;;;;;;;18.07;11.03;;;15.10;83.10;;;;;;5006713;28;20522;-72
2022/09/24 07:48:51;;;;;;;17.73;11.33;;;15.20;82.50;;;;;;5011289;28;20649;-71
2022/09/24 07:51:17;;;;;;;20.23;12.97;;;15.30;82.70;;;;;;5006460;28;20453;-71
2022/09/24 07:53:42;;;;;;;19.27;12.40;;;15.30;81.90;;;;;;5008208;28;20504;-71
2022/09/24 07:56:08;;;;;;;18.90;12.40;;;15.20;81.90;;;;;;5005559;28;20628;-71
2022/09/24 07:58:34;;;;;;;22.93;14.13;;;15.00;82.70;;;;;;5007277;28;20186;-71
2022/09/24 08:01:00;;;;;;;20.10;13.63;;;14.90;83.40;;;;;;5002060;28;20244;-70
2022/09/24 08:03:26;;;;;;;19.60;12.90;;;14.90;84.00;;;;;;5003157;28;20482;-70
2022/09/24 08:05:56;;;;;;;22.70;14.37;;;15.00;83.60;;;;;;5005561;28;20232;-70
2022/09/24 08:08:21;;;;;;;18.80;14.57;;;15.00;83.30;;;;;;5005056;28;20421;-71
2022/09/24 08:10:47;;;;;;;19.60;13.10;;;14.70;84.10;;;;;;5007225;28;20428;-71
2022/09/24 08:13:13;;;;;;;21.40;14.23;;;14.80;84.40;;;;;;5005079;28;20273;-70
2022/09/24 08:15:39;;;;;;;22.30;13.30;;;14.70;84.40;;;;;;5002037;28;20194;-71
2022/09/24 08:18:05;;;;;;;20.97;14.53;;;14.60;84.90;;;;;;5003071;28;20183;-70
2022/09/24 08:20:31;;;;;;;20.60;14.90;;;14.60;85.20;;;;;;5001676;28;20253;-70
2022/09/24 08:23:06;;;;;;;21.33;14.50;;;14.60;85.20;;;;;;5002465;28;20439;-69
2022/09/24 08:25:32;;;;;;;23.37;15.10;;;14.50;85.70;;;;;;5007383;28;20985;-70
2022/09/24 08:28:05;;;;;;;25.97;15.20;;;14.60;85.50;;;;;;5005419;28;20441;-70
2022/09/24 08:30:32;;;;;;;23.50;15.47;;;14.60;85.60;;;;;;5003760;28;20422;-71
2022/09/24 08:32:58;;;;;;;23.97;15.03;;;14.70;85.60;;;;;;5000671;28;20552;-70
2022/09/24 08:35:24;;;;;;;27.00;14.33;;;14.80;85.00;;;;;;5002482;28;20504;-70
2022/09/24 08:37:52;;;;;;;24.27;15.40;;;14.90;84.90;;;;;;5006906;28;20193;-70
2022/09/24 08:40:23;;;;;;;21.50;13.53;;;14.90;84.40;;;;;;4998672;28;20422;-69
2022/09/24 08:43:11;;;;;;;21.23;14.30;;;15.20;84.40;;;;;;5008694;28;20428;-71
2022/09/24 08:48:37;;;;;;;20.00;13.23;;;15.50;83.10;;;;;;5004116;28;20518;-70
2022/09/24 08:51:07;;;;;;;18.53;13.47;;;15.80;82.40;;;;;;5002479;28;20468;-71
2022/09/24 08:53:42;;;;;;;20.00;13.80;;;16.10;81.50;;;;;;5004262;28;20618;-71
2022/09/24 08:56:10;;;;;;;17.27;12.27;;;16.40;80.50;;;;;;5004822;28;20959;-69
2022/09/24 08:58:35;;;;;;;19.43;14.07;;;16.70;80.30;;;;;;4998758;28;20437;-70
2022/09/24 09:01:09;;;;;;;22.47;13.27;;;16.90;79.00;;;;;;5003985;28;20417;-70
2022/09/24 09:03:36;;;;;;;16.97;11.37;;;16.70;78.70;;;;;;5004433;28;20304;-70
2022/09/24 09:06:09;;;;;;;17.43;11.53;;;16.80;79.60;;;;;;4998266;28;20471;-70
2022/09/24 09:08:41;;;;;;;12.57;9.57;;;17.00;79.20;;;;;;5000837;28;20644;-73
2022/09/24 09:11:10;;;;;;;14.23;8.20;;;17.10;78.30;;;;;;5002927;28;20435;-70
2022/09/24 09:13:41;;;;;;;10.53;7.63;;;17.30;77.70;;;;;;5004153;28;20472;-71
2022/09/24 09:16:26;;;;;;;14.07;7.93;;;17.30;77.10;;;;;;5006861;28;20467;-71
2022/09/24 09:18:58;;;;;;;9.30;5.50;;;17.40;77.10;;;;;;5003159;28;20420;-70
2022/09/24 09:21:51;;;;;;;5.20;4.03;;;17.20;77.30;;;;;;5004609;28;20440;-71
2022/09/24 09:24:25;;;;;;;4.40;3.97;;;17.00;78.40;;;;;;5003916;28;20427;-71
2022/09/24 09:26:54;;;;;;;6.27;4.50;;;16.80;79.50;;;;;;5000684;28;20492;-70
2022/09/24 09:29:24;;;;;;;6.47;3.93;;;16.90;79.70;;;;;;4991622;28;20447;-69
2022/09/24 09:32:11;;;;;;;6.47;4.40;;;16.70;80.80;;;;;;4998413;28;20430;-70
2022/09/24 09:35:18;;;;;;;5.97;4.30;;;16.70;80.30;;;;;;5005553;28;20526;-70
2022/09/24 09:37:55;;;;;;;5.87;4.57;;;16.80;80.60;;;;;;4930027;29;20467;-70
2022/09/24 09:40:46;;;;;;;6.93;4.93;;;16.70;81.20;;;;;;4929640;29;20903;-71
2022/09/24 09:43:13;;;;;;;8.13;4.57;;;16.60;81.90;;;;;;4931873;29;20922;-71
2022/09/24 09:45:41;;;;;;;7.47;5.13;;;16.60;82.70;;;;;;4929878;29;20422;-70
2022/09/24 09:48:12;;;;;;;6.97;4.63;;;16.50;83.00;;;;;;4928896;29;20443;-70
2022/09/24 09:50:41;;;;;;;8.10;4.93;;;16.50;83.60;;;;;;4931060;29;20430;-70
2022/09/24 09:53:19;;;;;;;7.00;4.77;;;16.40;83.80;;;;;;4929129;29;20572;-70
2022/09/24 09:55:54;;;;;;;7.00;4.57;;;16.50;84.10;;;;;;4929651;29;20447;-70
2022/09/24 09:58:28;;;;;;;6.00;4.40;;;16.50;84.40;;;;;;4931482;29;20507;-71
2022/09/24 10:01:16;;;;;;;8.30;4.93;;;16.60;84.40;;;;;;4929432;29;20551;-70
2022/09/24 10:03:48;;;;;;;6.37;4.23;;;16.50;84.60;;;;;;4930957;29;20467;-69
2022/09/24 10:06:28;;;;;;;5.33;4.47;;;16.50;85.00;;;;;;4929984;29;20562;-70
2022/09/24 10:09:11;;;;;;;6.20;4.80;;;16.60;84.70;;;;;;4930882;29;20443;-69
2022/09/24 10:11:37;;;;;;;7.30;5.03;;;16.60;85.30;;;;;;4929352;29;20437;-70
2022/09/24 10:14:04;;;;;;;6.17;4.57;;;16.70;85.60;;;;;;4951409;28;20478;-69
2022/09/24 10:16:34;;;;;;;7.20;5.20;;;16.70;84.90;;;;;;4997277;28;20202;-70
2022/09/24 10:18:59;;;;;;;7.90;5.83;;;16.50;86.00;;;;;;4997125;28;20419;-70
2022/09/24 10:21:33;;;;;;;8.27;5.33;;;16.50;86.60;;;;;;5000700;28;20507;-70
2022/09/24 10:24:02;;;;;;;7.50;5.67;;;16.60;86.30;;;;;;5005205;28;20202;-70
2022/09/24 10:26:42;;;;;;;7.37;5.50;;;16.60;86.60;;;;;;5008657;28;20466;-69
2022/09/24 10:32:22;;;;;;;5.70;4.73;;;16.60;85.60;;;;;;5005063;28;20433;-70
2022/09/24 10:34:59;;;;;;;7.90;5.50;;;16.60;87.00;;;;;;5018388;28;20481;-71
2022/09/24 10:37:26;;;;;;;6.10;5.10;;;16.50;86.50;;;;;;5024734;28;20451;-71
2022/09/24 10:40:02;;;;;;;8.30;5.00;;;16.40;87.00;;;;;;5021025;28;20444;-70
2022/09/24 10:42:29;;;;;;;6.83;5.00;;;16.70;87.00;;;;;;5025730;28;20507;-71
2022/09/24 10:45:00;;;;;;;10.73;5.33;;;17.00;86.30;;;;;;5017584;28;20432;-71
2022/09/24 10:48:03;;;;;;;5.93;4.10;;;17.30;86.20;;;;;;5019855;28;20445;-68
2022/09/24 10:50:42;;;;;;;12.10;4.60;;;17.30;83.00;;;;;;5010000;28;20490;-70
2022/09/24 10:53:28;;;;;;;4.33;3.67;;;17.20;82.20;;;;;;5016788;28;20468;-69
2022/09/24 10:56:05;;;;;;;6.37;4.37;;;17.20;83.00;;;;;;5017657;28;20480;-71
2022/09/24 10:59:01;;;;;;;5.80;4.30;;;17.20;83.00;;;;;;5015824;28;20443;-71
2022/09/24 11:01:36;;;;;;;6.23;4.50;;;17.20;82.40;;;;;;5015350;28;20520;-71
2022/09/24 11:04:48;;;;;;;5.53;4.00;;;17.20;83.00;;;;;;5010920;28;20425;-71
2022/09/24 11:07:54;;;;;;;5.70;4.10;;;17.20;83.40;;;;;;4995966;28;20467;-71
2022/09/24 11:10:38;;;;;;;8.60;4.73;;;17.10;83.30;;;;;;5016336;28;20427;-72
2022/09/24 11:13:14;;;;;;;5.90;4.33;;;17.20;83.30;;;;;;5017883;28;20478;-70
2022/09/24 11:16:24;;;;;;;5.43;3.90;;;17.30;83.40;;;;;;5017246;28;20444;-70
2022/09/24 11:19:15;;;;;;;5.93;4.13;;;17.30;83.70;;;;;;4921864;29;20441;-71
2022/09/24 11:22:00;;;;;;;5.63;4.57;;;17.30;83.80;;;;;;4916036;29;20455;-71
2022/09/24 11:24:49;;;;;;;6.03;4.57;;;17.40;83.80;;;;;;4912874;29;20519;-72
2022/09/24 11:27:48;;;;;;;6.73;4.40;;;17.50;82.80;;;;;;4926856;29;20477;-74
2022/09/24 11:30:20;;;;;;;4.80;4.00;;;17.50;81.70;;;;;;4902629;29;20440;-73
2022/09/24 11:33:03;;;;;;;5.67;3.63;;;17.50;82.40;;;;;;4897556;29;20442;-73
2022/09/24 11:36:07;;;;;;;6.50;4.20;;;17.40;82.70;;;;;;4899603;29;20436;-71
2022/09/24 11:38:38;;;;;;;5.20;3.23;;;17.50;83.10;;;;;;4906875;29;20444;-69
2022/09/24 11:41:33;;;;;;;5.73;4.00;;;17.50;82.50;;;;;;4901360;29;20761;-71
2022/09/24 11:44:20;;;;;;;6.03;4.37;;;17.50;82.40;;;;;;4901864;29;20895;-71
2022/09/24 11:47:05;;;;;;;12.67;6.93;;;17.40;82.70;;;;;;4899938;29;20475;-70
2022/09/24 11:49:55;;;;;;;6.03;4.57;;;17.20;84.00;;;;;;4938122;28;21112;-70
2022/09/24 11:52:37;;;;;;;5.90;4.63;;;17.00;84.90;;;;;;5000363;28;20440;-71
2022/09/24 11:55:17;;;;;;;7.40;4.63;;;16.80;85.90;;;;;;4994179;28;20436;-71
2022/09/24 11:57:56;;;;;;;6.57;4.63;;;16.90;86.30;;;;;;5002226;28;20455;-70
2022/09/24 12:00:23;;;;;;;8.53;4.80;;;16.90;86.60;;;;;;4996322;28;20409;-70
2022/09/24 12:02:50;;;;;;;7.00;5.03;;;17.00;86.60;;;;;;5003293;28;20421;-71
2022/09/24 12:05:21;;;;;;;8.13;4.60;;;17.00;86.60;;;;;;5002489;28;20443;-70
2022/09/24 12:07:53;;;;;;;6.43;4.77;;;17.00;86.60;;;;;;5003518;28;20530;-70
2022/09/24 12:10:28;;;;;;;6.97;4.90;;;17.00;86.90;;;;;;4986539;28;20458;-70
2022/09/24 12:13:03;;;;;;;8.77;5.37;;;17.00;86.60;;;;;;5005729;28;20472;-71
2022/09/24 12:15:44;;;;;;;7.43;5.53;;;17.00;86.80;;;;;;5004551;28;20505;-71
2022/09/24 12:18:25;;;;;;;7.03;4.63;;;17.10;87.00;;;;;;5001712;28;20844;-71
2022/09/24 12:20:58;;;;;;;11.33;6.00;;;17.20;87.10;;;;;;4999419;28;20850;-70
2022/09/24 12:23:26;;;;;;;9.50;5.27;;;17.20;87.10;;;;;;5000845;28;20495;-70
2022/09/24 12:25:55;;;;;;;9.77;6.00;;;17.30;87.30;;;;;;5001137;28;20467;-70
2022/09/24 12:34:35;;;;;;;8.20;5.50;;;17.00;88.60;;;;;;4998108;28;20506;-70
2022/09/24 12:37:10;;;;;;;10.17;5.20;;;16.90;89.20;;;;;;4999662;28;20461;-71
2022/09/24 12:39:44;;;;;;;7.73;5.50;;;16.90;88.70;;;;;;5002042;28;20420;-70
2022/09/24 12:42:12;;;;;;;9.03;6.77;;;17.00;88.30;;;;;;5002523;28;20517;-70
2022/09/24 12:44:50;;;;;;;7.23;5.30;;;16.90;88.40;;;;;;5003927;28;20435;-69
2022/09/24 12:47:20;;;;;;;8.80;5.97;;;16.90;89.20;;;;;;4997989;28;20468;-71
2022/09/24 12:50:02;;;;;;;13.67;8.67;;;17.00;89.00;;;;;;4991275;28;20436;-70
2022/09/24 12:52:41;;;;;;;12.13;6.63;;;17.00;88.40;;;;;;5006885;28;20471;-70
2022/09/24 12:55:33;;;;;;;8.90;6.37;;;17.00;88.70;;;;;;5008125;28;20503;-71
2022/09/24 12:58:01;;;;;;;10.20;7.13;;;17.00;88.90;;;;;;5008892;28;20430;-71
2022/09/24 13:00:44;;;;;;;7.97;6.23;;;17.10;89.00;;;;;;5010004;28;20958;-70
2022/09/24 13:03:32;;;;;;;9.93;6.77;;;17.40;88.00;;;;;;5001793;28;20429;-69
2022/09/24 13:05:59;;;;;;;8.87;6.90;;;17.70;86.80;;;;;;4988926;28;20463;-70
2022/09/24 13:08:34;;;;;;;8.10;5.33;;;18.00;86.50;;;;;;5006619;28;20416;-70
2022/09/24 13:11:06;;;;;;;8.30;5.60;;;18.30;85.70;;;;;;5007206;28;20930;-70
2022/09/24 13:13:39;;;;;;;8.90;5.20;;;18.50;84.70;;;;;;5008222;28;20555;-72
2022/09/24 13:16:16;;;;;;;10.00;6.70;;;18.40;83.10;;;;;;4998153;28;20455;-70